sensor_id;sensor_type;location;lat;lon;timestamp;P1;durP1;ratioP1;P2;durP2;ratioP2
7645;SDS011;3864;48.180;14.178;2024-03-23T00:54:51;26.90;;;17.45;;
7645;SDS011;3864;48.180;14.178;2024-03-23T00:57:18;27.30;;;18.75;;
7645;SDS011;3864;48.180;14.178;2024-03-23T00:59:46;26.85;;;18.33;;
7645;SDS011;3864;48.180;14.178;2024-03-23T01:12:11;27.33;;;16.90;;
7645;SDS011;3864;48.180;14.178;2024-03-23T01:14:43;25.58;;;18.40;;
7645;SDS011;3864;48.180;14.178;2024-03-23T01:17:10;25.63;;;17.13;;
7645;SDS011;3864;48.180;14.178;2024-03-23T01:19:36;25.75;;;17.45;;
7645;SDS011;3864;48.180;14.178;2024-03-23T01:22:04;29.08;;;16.88;;
7645;SDS011;3864;48.180;14.178;2024-03-23T01:24:30;27.05;;;16.27;;
7645;SDS011;3864;48.180;14.178;2024-03-23T01:26:59;25.83;;;17.30;;
7645;SDS011;3864;48.180;14.178;2024-03-23T01:29:25;23.35;;;15.63;;
7645;SDS011;3864;48.180;14.178;2024-03-23T01:31:53;22.92;;;14.50;;
7645;SDS011;3864;48.180;14.178;2024-03-23T01:34:19;22.67;;;15.63;;
7645;SDS011;3864;48.180;14.178;2024-03-23T01:36:46;25.95;;;14.70;;
7645;SDS011;3864;48.180;14.178;2024-03-23T01:39:12;22.70;;;15.18;;
7645;SDS011;3864;48.180;14.178;2024-03-23T01:41:39;21.10;;;15.30;;
7645;SDS011;3864;48.180;14.178;2024-03-23T01:47:14;22.90;;;15.00;;
7645;SDS011;3864;48.180;14.178;2024-03-23T01:49:41;18.65;;;13.60;;
7645;SDS011;3864;48.180;14.178;2024-03-23T01:52:08;24.83;;;14.60;;
7645;SDS011;3864;48.180;14.178;2024-03-23T01:57:02;21.35;;;14.02;;
7645;SDS011;3864;48.180;14.178;2024-03-23T01:59:28;20.38;;;15.88;;
7645;SDS011;3864;48.180;14.178;2024-03-23T02:01:57;20.20;;;13.27;;
7645;SDS011;3864;48.180;14.178;2024-03-23T02:04:23;18.40;;;13.82;;
7645;SDS011;3864;48.180;14.178;2024-03-23T02:06:50;18.08;;;13.15;;
7645;SDS011;3864;48.180;14.178;2024-03-23T02:09:16;21.23;;;14.30;;
7645;SDS011;3864;48.180;14.178;2024-03-23T02:11:43;21.50;;;14.13;;
7645;SDS011;3864;48.180;14.178;2024-03-23T02:14:10;20.35;;;14.82;;
7645;SDS011;3864;48.180;14.178;2024-03-23T02:16:37;21.17;;;14.70;;
7645;SDS011;3864;48.180;14.178;2024-03-23T02:19:04;20.67;;;13.38;;
7645;SDS011;3864;48.180;14.178;2024-03-23T02:21:32;19.42;;;12.48;;
7645;SDS011;3864;48.180;14.178;2024-03-23T02:24:00;22.63;;;14.95;;
7645;SDS011;3864;48.180;14.178;2024-03-23T02:26:27;21.58;;;15.00;;
7645;SDS011;3864;48.180;14.178;2024-03-23T02:28:53;22.85;;;14.75;;
7645;SDS011;3864;48.180;14.178;2024-03-23T02:31:20;18.42;;;12.23;;
7645;SDS011;3864;48.180;14.178;2024-03-23T02:33:46;15.35;;;11.45;;
7645;SDS011;3864;48.180;14.178;2024-03-23T02:36:14;13.60;;;8.82;;
7645;SDS011;3864;48.180;14.178;2024-03-23T02:38:40;20.58;;;12.63;;
7645;SDS011;3864;48.180;14.178;2024-03-23T02:41:09;14.23;;;10.50;;
7645;SDS011;3864;48.180;14.178;2024-03-23T02:43:35;19.40;;;13.10;;
7645;SDS011;3864;48.180;14.178;2024-03-23T02:46:03;13.32;;;10.07;;
7645;SDS011;3864;48.180;14.178;2024-03-23T02:48:29;17.55;;;10.38;;
7645;SDS011;3864;48.180;14.178;2024-03-23T02:50:56;15.60;;;9.98;;
7645;SDS011;3864;48.180;14.178;2024-03-23T02:53:22;13.98;;;10.85;;
7645;SDS011;3864;48.180;14.178;2024-03-23T02:55:49;18.42;;;10.85;;
7645;SDS011;3864;48.180;14.178;2024-03-23T02:58:17;13.50;;;9.05;;
7645;SDS011;3864;48.180;14.178;2024-03-23T03:00:44;12.50;;;9.20;;
7645;SDS011;3864;48.180;14.178;2024-03-23T03:03:10;12.05;;;8.40;;
7645;SDS011;3864;48.180;14.178;2024-03-23T03:05:37;10.68;;;8.32;;
7645;SDS011;3864;48.180;14.178;2024-03-23T03:08:04;17.00;;;7.95;;
7645;SDS011;3864;48.180;14.178;2024-03-23T03:10:31;11.13;;;8.63;;
7645;SDS011;3864;48.180;14.178;2024-03-23T03:13:00;12.55;;;8.65;;
7645;SDS011;3864;48.180;14.178;2024-03-23T03:15:29;14.77;;;8.68;;
7645;SDS011;3864;48.180;14.178;2024-03-23T03:17:55;16.92;;;10.60;;
7645;SDS011;3864;48.180;14.178;2024-03-23T03:20:22;12.13;;;8.65;;
7645;SDS011;3864;48.180;14.178;2024-03-23T03:22:49;13.18;;;9.30;;
7645;SDS011;3864;48.180;14.178;2024-03-23T03:25:18;12.38;;;8.90;;
7645;SDS011;3864;48.180;14.178;2024-03-23T03:27:44;12.60;;;7.47;;
7645;SDS011;3864;48.180;14.178;2024-03-23T03:30:11;10.10;;;8.35;;
7645;SDS011;3864;48.180;14.178;2024-03-23T03:35:07;9.68;;;7.05;;
7645;SDS011;3864;48.180;14.178;2024-03-23T03:37:33;13.05;;;7.50;;
7645;SDS011;3864;48.180;14.178;2024-03-23T03:40:00;15.40;;;8.43;;
7645;SDS011;3864;48.180;14.178;2024-03-23T03:42:26;11.15;;;7.30;;
7645;SDS011;3864;48.180;14.178;2024-03-23T03:44:53;12.02;;;7.72;;
7645;SDS011;3864;48.180;14.178;2024-03-23T03:47:19;9.88;;;6.45;;
7645;SDS011;3864;48.180;14.178;2024-03-23T03:49:48;10.52;;;7.07;;
7645;SDS011;3864;48.180;14.178;2024-03-23T03:52:15;11.05;;;7.03;;
7645;SDS011;3864;48.180;14.178;2024-03-23T03:54:42;8.18;;;5.82;;
7645;SDS011;3864;48.180;14.178;2024-03-23T03:57:08;10.07;;;6.60;;
7645;SDS011;3864;48.180;14.178;2024-03-23T03:59:35;10.85;;;6.00;;
7645;SDS011;3864;48.180;14.178;2024-03-23T04:02:01;9.73;;;6.03;;
7645;SDS011;3864;48.180;14.178;2024-03-23T04:04:28;7.72;;;6.38;;
7645;SDS011;3864;48.180;14.178;2024-03-23T04:10:31;11.07;;;6.50;;
7645;SDS011;3864;48.180;14.178;2024-03-23T04:12:58;10.30;;;5.95;;
7645;SDS011;3864;48.180;14.178;2024-03-23T04:15:24;7.50;;;5.85;;
7645;SDS011;3864;48.180;14.178;2024-03-23T04:17:52;8.63;;;5.82;;
7645;SDS011;3864;48.180;14.178;2024-03-23T04:20:18;8.23;;;5.65;;
7645;SDS011;3864;48.180;14.178;2024-03-23T04:22:45;8.13;;;6.38;;
7645;SDS011;3864;48.180;14.178;2024-03-23T04:25:13;7.90;;;6.03;;
7645;SDS011;3864;48.180;14.178;2024-03-23T04:27:42;8.32;;;6.10;;
7645;SDS011;3864;48.180;14.178;2024-03-23T04:30:09;8.90;;;6.30;;
7645;SDS011;3864;48.180;14.178;2024-03-23T04:32:37;10.48;;;7.00;;
7645;SDS011;3864;48.180;14.178;2024-03-23T04:35:04;7.95;;;6.25;;
7645;SDS011;3864;48.180;14.178;2024-03-23T04:37:34;8.52;;;6.68;;
7645;SDS011;3864;48.180;14.178;2024-03-23T04:40:02;8.52;;;6.25;;
7645;SDS011;3864;48.180;14.178;2024-03-23T04:42:30;11.40;;;7.03;;
7645;SDS011;3864;48.180;14.178;2024-03-23T04:44:59;7.88;;;6.28;;
7645;SDS011;3864;48.180;14.178;2024-03-23T04:47:26;9.13;;;7.15;;
7645;SDS011;3864;48.180;14.178;2024-03-23T04:49:53;12.00;;;7.18;;
7645;SDS011;3864;48.180;14.178;2024-03-23T04:52:20;12.82;;;7.93;;
7645;SDS011;3864;48.180;14.178;2024-03-23T04:54:48;12.02;;;7.90;;
7645;SDS011;3864;48.180;14.178;2024-03-23T04:57:15;10.68;;;6.75;;
7645;SDS011;3864;48.180;14.178;2024-03-23T04:59:42;11.07;;;7.22;;
7645;SDS011;3864;48.180;14.178;2024-03-23T05:02:10;12.05;;;6.97;;
7645;SDS011;3864;48.180;14.178;2024-03-23T05:04:37;9.15;;;6.45;;
7645;SDS011;3864;48.180;14.178;2024-03-23T05:07:03;10.75;;;6.75;;
7645;SDS011;3864;48.180;14.178;2024-03-23T05:09:31;9.85;;;7.28;;
7645;SDS011;3864;48.180;14.178;2024-03-23T05:11:58;9.32;;;6.07;;
7645;SDS011;3864;48.180;14.178;2024-03-23T05:14:25;12.95;;;7.60;;
7645;SDS011;3864;48.180;14.178;2024-03-23T05:16:52;9.82;;;7.22;;
7645;SDS011;3864;48.180;14.178;2024-03-23T05:19:21;10.95;;;7.22;;
7645;SDS011;3864;48.180;14.178;2024-03-23T05:21:47;10.55;;;6.80;;
7645;SDS011;3864;48.180;14.178;2024-03-23T05:24:14;10.50;;;7.43;;
7645;SDS011;3864;48.180;14.178;2024-03-23T05:26:40;9.80;;;6.53;;
7645;SDS011;3864;48.180;14.178;2024-03-23T05:29:07;8.77;;;6.28;;
7645;SDS011;3864;48.180;14.178;2024-03-23T05:31:36;10.15;;;6.53;;
7645;SDS011;3864;48.180;14.178;2024-03-23T05:34:03;11.80;;;7.38;;
7645;SDS011;3864;48.180;14.178;2024-03-23T05:36:31;10.68;;;6.80;;
7645;SDS011;3864;48.180;14.178;2024-03-23T05:38:58;10.75;;;7.53;;
7645;SDS011;3864;48.180;14.178;2024-03-23T05:41:25;12.80;;;8.05;;
7645;SDS011;3864;48.180;14.178;2024-03-23T05:43:52;9.55;;;6.93;;
7645;SDS011;3864;48.180;14.178;2024-03-23T05:46:18;11.07;;;8.23;;
7645;SDS011;3864;48.180;14.178;2024-03-23T05:48:45;12.30;;;7.35;;
7645;SDS011;3864;48.180;14.178;2024-03-23T05:51:13;10.85;;;7.35;;
7645;SDS011;3864;48.180;14.178;2024-03-23T05:53:40;9.45;;;7.40;;
7645;SDS011;3864;48.180;14.178;2024-03-23T05:56:08;11.50;;;7.80;;
7645;SDS011;3864;48.180;14.178;2024-03-23T05:58:34;10.95;;;7.07;;
7645;SDS011;3864;48.180;14.178;2024-03-23T06:01:01;10.38;;;6.97;;
7645;SDS011;3864;48.180;14.178;2024-03-23T06:03:27;10.35;;;7.57;;
7645;SDS011;3864;48.180;14.178;2024-03-23T06:05:55;10.48;;;6.82;;
7645;SDS011;3864;48.180;14.178;2024-03-23T06:08:21;11.80;;;8.48;;
7645;SDS011;3864;48.180;14.178;2024-03-23T06:10:51;17.50;;;11.40;;
7645;SDS011;3864;48.180;14.178;2024-03-23T06:13:17;15.90;;;9.55;;
7645;SDS011;3864;48.180;14.178;2024-03-23T06:15:44;14.18;;;9.95;;
7645;SDS011;3864;48.180;14.178;2024-03-23T06:18:11;16.58;;;9.57;;
7645;SDS011;3864;48.180;14.178;2024-03-23T06:20:38;15.25;;;9.82;;
7645;SDS011;3864;48.180;14.178;2024-03-23T06:23:05;15.55;;;10.13;;
7645;SDS011;3864;48.180;14.178;2024-03-23T06:25:32;15.07;;;10.05;;
7645;SDS011;3864;48.180;14.178;2024-03-23T06:28:00;15.93;;;10.65;;
7645;SDS011;3864;48.180;14.178;2024-03-23T06:30:28;15.93;;;10.90;;
7645;SDS011;3864;48.180;14.178;2024-03-23T06:32:54;13.73;;;9.93;;
7645;SDS011;3864;48.180;14.178;2024-03-23T06:35:22;14.55;;;10.10;;
7645;SDS011;3864;48.180;14.178;2024-03-23T06:37:48;15.07;;;9.60;;
7645;SDS011;3864;48.180;14.178;2024-03-23T06:40:15;12.38;;;9.68;;
7645;SDS011;3864;48.180;14.178;2024-03-23T06:42:41;20.27;;;10.02;;
7645;SDS011;3864;48.180;14.178;2024-03-23T06:45:11;14.98;;;9.40;;
7645;SDS011;3864;48.180;14.178;2024-03-23T06:47:37;15.75;;;10.57;;
7645;SDS011;3864;48.180;14.178;2024-03-23T06:50:05;16.00;;;11.02;;
7645;SDS011;3864;48.180;14.178;2024-03-23T06:52:32;16.23;;;11.10;;
7645;SDS011;3864;48.180;14.178;2024-03-23T06:54:58;18.13;;;11.75;;
7645;SDS011;3864;48.180;14.178;2024-03-23T06:57:26;18.35;;;11.90;;
7645;SDS011;3864;48.180;14.178;2024-03-23T06:59:52;21.77;;;12.82;;
7645;SDS011;3864;48.180;14.178;2024-03-23T07:02:20;19.98;;;13.30;;
7645;SDS011;3864;48.180;14.178;2024-03-23T07:04:47;18.67;;;13.32;;
7645;SDS011;3864;48.180;14.178;2024-03-23T07:07:14;23.40;;;14.27;;
7645;SDS011;3864;48.180;14.178;2024-03-23T07:09:40;24.20;;;15.30;;
7645;SDS011;3864;48.180;14.178;2024-03-23T07:12:07;31.00;;;16.95;;
7645;SDS011;3864;48.180;14.178;2024-03-23T07:14:33;30.90;;;17.73;;
7645;SDS011;3864;48.180;14.178;2024-03-23T07:20:37;28.98;;;15.75;;
7645;SDS011;3864;48.180;14.178;2024-03-23T07:23:04;34.00;;;17.05;;
7645;SDS011;3864;48.180;14.178;2024-03-23T07:25:31;26.95;;;15.80;;
7645;SDS011;3864;48.180;14.178;2024-03-23T07:27:57;28.80;;;16.80;;
7645;SDS011;3864;48.180;14.178;2024-03-23T07:30:24;30.15;;;18.95;;
7645;SDS011;3864;48.180;14.178;2024-03-23T07:36:20;30.30;;;18.88;;
7645;SDS011;3864;48.180;14.178;2024-03-23T07:38:47;28.15;;;16.73;;
7645;SDS011;3864;48.180;14.178;2024-03-23T07:41:14;26.02;;;17.83;;
7645;SDS011;3864;48.180;14.178;2024-03-23T07:43:45;24.45;;;16.83;;
7645;SDS011;3864;48.180;14.178;2024-03-23T07:46:14;23.27;;;16.02;;
7645;SDS011;3864;48.180;14.178;2024-03-23T07:48:43;21.02;;;15.55;;
7645;SDS011;3864;48.180;14.178;2024-03-23T07:51:10;22.65;;;14.73;;
7645;SDS011;3864;48.180;14.178;2024-03-23T07:53:45;18.80;;;12.55;;
7645;SDS011;3864;48.180;14.178;2024-03-23T07:56:13;19.20;;;13.48;;
7645;SDS011;3864;48.180;14.178;2024-03-23T07:58:40;16.95;;;12.40;;
7645;SDS011;3864;48.180;14.178;2024-03-23T08:06:51;17.17;;;13.27;;
7645;SDS011;3864;48.180;14.178;2024-03-23T08:09:20;18.67;;;13.68;;
7645;SDS011;3864;48.180;14.178;2024-03-23T08:11:46;16.60;;;12.18;;
7645;SDS011;3864;48.180;14.178;2024-03-23T08:14:13;17.83;;;12.07;;
7645;SDS011;3864;48.180;14.178;2024-03-23T08:16:39;17.73;;;11.75;;
7645;SDS011;3864;48.180;14.178;2024-03-23T08:22:14;13.48;;;10.18;;
7645;SDS011;3864;48.180;14.178;2024-03-23T08:24:43;13.07;;;9.88;;
7645;SDS011;3864;48.180;14.178;2024-03-23T08:27:09;10.88;;;8.65;;
7645;SDS011;3864;48.180;14.178;2024-03-23T08:29:37;12.50;;;8.23;;
7645;SDS011;3864;48.180;14.178;2024-03-23T08:35:53;11.27;;;8.73;;
7645;SDS011;3864;48.180;14.178;2024-03-23T08:38:21;11.13;;;8.27;;
7645;SDS011;3864;48.180;14.178;2024-03-23T08:40:55;9.98;;;7.53;;
7645;SDS011;3864;48.180;14.178;2024-03-23T08:43:24;11.40;;;7.80;;
7645;SDS011;3864;48.180;14.178;2024-03-23T08:48:17;10.43;;;7.47;;
7645;SDS011;3864;48.180;14.178;2024-03-23T08:50:45;8.70;;;6.65;;
7645;SDS011;3864;48.180;14.178;2024-03-23T08:53:12;10.80;;;7.53;;
7645;SDS011;3864;48.180;14.178;2024-03-23T08:55:39;8.20;;;6.50;;
7645;SDS011;3864;48.180;14.178;2024-03-23T08:58:08;8.55;;;7.30;;
7645;SDS011;3864;48.180;14.178;2024-03-23T09:00:35;8.32;;;6.80;;
7645;SDS011;3864;48.180;14.178;2024-03-23T09:03:02;9.55;;;6.45;;
7645;SDS011;3864;48.180;14.178;2024-03-23T09:05:29;9.35;;;6.57;;
7645;SDS011;3864;48.180;14.178;2024-03-23T09:08:01;9.38;;;6.53;;
7645;SDS011;3864;48.180;14.178;2024-03-23T09:10:27;9.43;;;6.38;;
7645;SDS011;3864;48.180;14.178;2024-03-23T09:12:54;7.95;;;5.80;;
7645;SDS011;3864;48.180;14.178;2024-03-23T09:15:22;6.60;;;5.32;;
7645;SDS011;3864;48.180;14.178;2024-03-23T09:17:49;7.40;;;5.55;;
7645;SDS011;3864;48.180;14.178;2024-03-23T09:20:15;8.77;;;5.93;;
7645;SDS011;3864;48.180;14.178;2024-03-23T09:22:43;7.82;;;6.18;;
7645;SDS011;3864;48.180;14.178;2024-03-23T09:25:09;8.00;;;5.30;;
7645;SDS011;3864;48.180;14.178;2024-03-23T09:27:36;6.63;;;5.50;;
7645;SDS011;3864;48.180;14.178;2024-03-23T09:30:02;6.82;;;5.22;;
7645;SDS011;3864;48.180;14.178;2024-03-23T09:32:32;9.50;;;4.95;;
7645;SDS011;3864;48.180;14.178;2024-03-23T09:34:58;5.22;;;4.40;;
7645;SDS011;3864;48.180;14.178;2024-03-23T09:37:25;7.25;;;5.57;;
7645;SDS011;3864;48.180;14.178;2024-03-23T09:39:51;6.25;;;4.60;;
7645;SDS011;3864;48.180;14.178;2024-03-23T09:42:18;5.35;;;3.95;;
7645;SDS011;3864;48.180;14.178;2024-03-23T09:44:44;5.82;;;4.30;;
7645;SDS011;3864;48.180;14.178;2024-03-23T09:47:12;5.30;;;4.13;;
7645;SDS011;3864;48.180;14.178;2024-03-23T09:49:40;6.07;;;4.88;;
7645;SDS011;3864;48.180;14.178;2024-03-23T09:52:07;5.53;;;3.95;;
7645;SDS011;3864;48.180;14.178;2024-03-23T09:57:01;5.82;;;4.40;;
7645;SDS011;3864;48.180;14.178;2024-03-23T09:59:27;5.32;;;3.80;;
7645;SDS011;3864;48.180;14.178;2024-03-23T10:01:56;5.78;;;4.53;;
7645;SDS011;3864;48.180;14.178;2024-03-23T10:04:37;6.07;;;4.78;;
7645;SDS011;3864;48.180;14.178;2024-03-23T10:07:11;6.70;;;4.95;;
7645;SDS011;3864;48.180;14.178;2024-03-23T10:09:37;6.53;;;4.78;;
7645;SDS011;3864;48.180;14.178;2024-03-23T10:12:08;5.57;;;4.43;;
7645;SDS011;3864;48.180;14.178;2024-03-23T10:14:35;5.00;;;3.25;;
7645;SDS011;3864;48.180;14.178;2024-03-23T10:17:12;2.67;;;1.90;;
7645;SDS011;3864;48.180;14.178;2024-03-23T10:19:41;2.40;;;1.70;;
7645;SDS011;3864;48.180;14.178;2024-03-23T10:22:09;3.05;;;2.00;;
7645;SDS011;3864;48.180;14.178;2024-03-23T10:24:35;6.45;;;2.20;;
7645;SDS011;3864;48.180;14.178;2024-03-23T10:27:02;3.13;;;1.88;;
7645;SDS011;3864;48.180;14.178;2024-03-23T10:29:29;7.50;;;2.40;;
7645;SDS011;3864;48.180;14.178;2024-03-23T10:32:07;3.95;;;1.83;;
7645;SDS011;3864;48.180;14.178;2024-03-23T10:34:34;2.38;;;1.77;;
7645;SDS011;3864;48.180;14.178;2024-03-23T10:37:03;2.92;;;1.80;;
7645;SDS011;3864;48.180;14.178;2024-03-23T10:39:33;3.05;;;1.90;;
7645;SDS011;3864;48.180;14.178;2024-03-23T10:42:02;3.25;;;1.70;;
7645;SDS011;3864;48.180;14.178;2024-03-23T10:44:29;3.85;;;2.05;;
7645;SDS011;3864;48.180;14.178;2024-03-23T10:46:57;2.72;;;1.83;;
7645;SDS011;3864;48.180;14.178;2024-03-23T10:49:25;3.90;;;2.13;;
7645;SDS011;3864;48.180;14.178;2024-03-23T10:51:54;2.78;;;1.90;;
7645;SDS011;3864;48.180;14.178;2024-03-23T10:54:24;2.90;;;1.73;;
7645;SDS011;3864;48.180;14.178;2024-03-23T10:56:52;5.32;;;2.47;;
7645;SDS011;3864;48.180;14.178;2024-03-23T10:59:23;3.70;;;1.92;;
7645;SDS011;3864;48.180;14.178;2024-03-23T11:01:54;2.75;;;1.75;;
7645;SDS011;3864;48.180;14.178;2024-03-23T11:04:30;3.00;;;1.98;;
7645;SDS011;3864;48.180;14.178;2024-03-23T11:06:58;2.05;;;1.58;;
7645;SDS011;3864;48.180;14.178;2024-03-23T11:09:42;2.90;;;1.92;;
7645;SDS011;3864;48.180;14.178;2024-03-23T11:12:29;3.05;;;1.73;;
7645;SDS011;3864;48.180;14.178;2024-03-23T11:15:00;1.65;;;1.50;;
7645;SDS011;3864;48.180;14.178;2024-03-23T11:17:29;1.23;;;1.08;;
7645;SDS011;3864;48.180;14.178;2024-03-23T11:19:56;2.20;;;1.45;;
7645;SDS011;3864;48.180;14.178;2024-03-23T11:22:40;2.00;;;1.20;;
7645;SDS011;3864;48.180;14.178;2024-03-23T11:31:13;2.33;;;1.40;;
7645;SDS011;3864;48.180;14.178;2024-03-23T11:33:41;2.42;;;1.52;;
7645;SDS011;3864;48.180;14.178;2024-03-23T11:36:07;3.13;;;1.42;;
7645;SDS011;3864;48.180;14.178;2024-03-23T11:38:36;4.95;;;1.65;;
7645;SDS011;3864;48.180;14.178;2024-03-23T11:41:04;2.03;;;1.20;;
7645;SDS011;3864;48.180;14.178;2024-03-23T11:43:31;1.52;;;1.10;;
7645;SDS011;3864;48.180;14.178;2024-03-23T11:45:57;2.83;;;1.90;;
7645;SDS011;3864;48.180;14.178;2024-03-23T11:48:28;2.03;;;1.13;;
7645;SDS011;3864;48.180;14.178;2024-03-23T11:50:55;2.83;;;1.38;;
7645;SDS011;3864;48.180;14.178;2024-03-23T11:53:24;3.90;;;1.50;;
7645;SDS011;3864;48.180;14.178;2024-03-23T11:55:53;3.45;;;1.50;;
7645;SDS011;3864;48.180;14.178;2024-03-23T11:58:24;2.17;;;1.60;;
7645;SDS011;3864;48.180;14.178;2024-03-23T12:00:51;2.65;;;1.65;;
7645;SDS011;3864;48.180;14.178;2024-03-23T12:03:19;2.35;;;1.52;;
7645;SDS011;3864;48.180;14.178;2024-03-23T12:05:50;3.15;;;1.73;;
7645;SDS011;3864;48.180;14.178;2024-03-23T12:08:22;2.30;;;1.40;;
7645;SDS011;3864;48.180;14.178;2024-03-23T12:10:50;4.40;;;1.45;;
7645;SDS011;3864;48.180;14.178;2024-03-23T12:13:32;2.58;;;1.50;;
7645;SDS011;3864;48.180;14.178;2024-03-23T12:16:08;2.28;;;1.55;;
7645;SDS011;3864;48.180;14.178;2024-03-23T12:22:11;2.67;;;1.50;;
7645;SDS011;3864;48.180;14.178;2024-03-23T12:24:38;2.75;;;1.60;;
7645;SDS011;3864;48.180;14.178;2024-03-23T12:57:13;2.60;;;1.70;;
7645;SDS011;3864;48.180;14.178;2024-03-23T13:00:45;2.55;;;1.70;;
7645;SDS011;3864;48.180;14.178;2024-03-23T13:06:50;2.78;;;1.60;;
7645;SDS011;3864;48.180;14.178;2024-03-23T13:15:32;2.40;;;1.45;;
7645;SDS011;3864;48.180;14.178;2024-03-23T13:21:25;3.85;;;1.98;;
7645;SDS011;3864;48.180;14.178;2024-03-23T13:23:52;1.65;;;1.10;;
7645;SDS011;3864;48.180;14.178;2024-03-23T13:26:18;2.95;;;1.50;;
7645;SDS011;3864;48.180;14.178;2024-03-23T13:28:46;1.60;;;0.93;;
7645;SDS011;3864;48.180;14.178;2024-03-23T13:31:14;1.65;;;1.10;;
7645;SDS011;3864;48.180;14.178;2024-03-23T13:33:41;1.20;;;1.00;;
7645;SDS011;3864;48.180;14.178;2024-03-23T13:36:09;1.63;;;0.90;;
7645;SDS011;3864;48.180;14.178;2024-03-23T13:38:36;2.08;;;1.27;;
7645;SDS011;3864;48.180;14.178;2024-03-23T13:41:02;1.10;;;0.85;;
7645;SDS011;3864;48.180;14.178;2024-03-23T13:43:31;1.67;;;1.10;;
7645;SDS011;3864;48.180;14.178;2024-03-23T13:45:58;1.70;;;1.27;;
7645;SDS011;3864;48.180;14.178;2024-03-23T13:48:27;1.02;;;0.85;;
7645;SDS011;3864;48.180;14.178;2024-03-23T13:50:57;1.85;;;1.00;;
7645;SDS011;3864;48.180;14.178;2024-03-23T13:53:24;1.90;;;1.20;;
7645;SDS011;3864;48.180;14.178;2024-03-23T13:55:50;1.42;;;1.00;;
7645;SDS011;3864;48.180;14.178;2024-03-23T13:58:18;1.55;;;0.85;;
7645;SDS011;3864;48.180;14.178;2024-03-23T14:00:44;1.02;;;0.93;;
7645;SDS011;3864;48.180;14.178;2024-03-23T14:03:11;1.67;;;1.10;;
7645;SDS011;3864;48.180;14.178;2024-03-23T14:05:40;1.13;;;0.95;;
7645;SDS011;3864;48.180;14.178;2024-03-23T14:08:08;2.28;;;1.30;;
7645;SDS011;3864;48.180;14.178;2024-03-23T14:10:34;1.65;;;1.10;;
7645;SDS011;3864;48.180;14.178;2024-03-23T14:13:02;1.52;;;1.15;;
7645;SDS011;3864;48.180;14.178;2024-03-23T14:15:28;1.38;;;1.00;;
7645;SDS011;3864;48.180;14.178;2024-03-23T14:17:56;2.22;;;1.35;;
7645;SDS011;3864;48.180;14.178;2024-03-23T14:20:22;1.38;;;1.05;;
7645;SDS011;3864;48.180;14.178;2024-03-23T14:22:52;3.67;;;1.50;;
7645;SDS011;3864;48.180;14.178;2024-03-23T14:32:12;1.42;;;1.08;;
7645;SDS011;3864;48.180;14.178;2024-03-23T14:34:38;2.17;;;1.20;;
7645;SDS011;3864;48.180;14.178;2024-03-23T14:37:05;1.70;;;1.10;;
7645;SDS011;3864;48.180;14.178;2024-03-23T14:39:33;3.00;;;1.20;;
7645;SDS011;3864;48.180;14.178;2024-03-23T14:42:00;1.60;;;1.05;;
7645;SDS011;3864;48.180;14.178;2024-03-23T14:44:27;1.52;;;1.27;;
7645;SDS011;3864;48.180;14.178;2024-03-23T14:46:57;5.13;;;1.60;;
7645;SDS011;3864;48.180;14.178;2024-03-23T14:49:23;2.40;;;1.50;;
7645;SDS011;3864;48.180;14.178;2024-03-23T14:51:51;2.30;;;1.33;;
7645;SDS011;3864;48.180;14.178;2024-03-23T14:54:17;2.38;;;1.30;;
7645;SDS011;3864;48.180;14.178;2024-03-23T14:56:46;2.42;;;1.40;;
7645;SDS011;3864;48.180;14.178;2024-03-23T14:59:12;3.47;;;1.40;;
7645;SDS011;3864;48.180;14.178;2024-03-23T15:01:40;3.63;;;1.50;;
7645;SDS011;3864;48.180;14.178;2024-03-23T15:04:06;2.00;;;1.25;;
7645;SDS011;3864;48.180;14.178;2024-03-23T15:06:34;2.40;;;1.50;;
7645;SDS011;3864;48.180;14.178;2024-03-23T15:09:00;3.65;;;1.35;;
7645;SDS011;3864;48.180;14.178;2024-03-23T15:11:32;2.63;;;1.42;;
7645;SDS011;3864;48.180;14.178;2024-03-23T15:14:00;3.28;;;1.70;;
7645;SDS011;3864;48.180;14.178;2024-03-23T15:16:27;3.90;;;1.98;;
7645;SDS011;3864;48.180;14.178;2024-03-23T15:18:53;2.45;;;1.60;;
7645;SDS011;3864;48.180;14.178;2024-03-23T15:21:20;2.05;;;1.60;;
7645;SDS011;3864;48.180;14.178;2024-03-23T15:23:46;2.38;;;1.55;;
7645;SDS011;3864;48.180;14.178;2024-03-23T15:26:14;3.95;;;1.90;;
7645;SDS011;3864;48.180;14.178;2024-03-23T15:28:41;3.00;;;1.70;;
7645;SDS011;3864;48.180;14.178;2024-03-23T15:31:30;2.97;;;1.45;;
7645;SDS011;3864;48.180;14.178;2024-03-23T15:34:43;2.63;;;1.42;;
7645;SDS011;3864;48.180;14.178;2024-03-23T15:37:13;3.28;;;2.15;;
7645;SDS011;3864;48.180;14.178;2024-03-23T15:39:40;3.10;;;1.70;;
7645;SDS011;3864;48.180;14.178;2024-03-23T15:42:07;2.35;;;1.45;;
7645;SDS011;3864;48.180;14.178;2024-03-23T15:44:33;2.05;;;1.55;;
7645;SDS011;3864;48.180;14.178;2024-03-23T15:47:02;2.25;;;1.50;;
7645;SDS011;3864;48.180;14.178;2024-03-23T15:49:29;2.05;;;1.35;;
7645;SDS011;3864;48.180;14.178;2024-03-23T15:51:56;3.55;;;1.60;;
7645;SDS011;3864;48.180;14.178;2024-03-23T15:54:23;2.90;;;1.60;;
7645;SDS011;3864;48.180;14.178;2024-03-23T15:56:50;4.00;;;1.80;;
7645;SDS011;3864;48.180;14.178;2024-03-23T15:59:16;3.00;;;2.10;;
7645;SDS011;3864;48.180;14.178;2024-03-23T16:01:43;3.47;;;1.73;;
7645;SDS011;3864;48.180;14.178;2024-03-23T16:04:12;2.67;;;1.90;;
7645;SDS011;3864;48.180;14.178;2024-03-23T16:06:39;2.70;;;1.83;;
7645;SDS011;3864;48.180;14.178;2024-03-23T16:09:06;3.08;;;2.03;;
7645;SDS011;3864;48.180;14.178;2024-03-23T16:11:34;4.55;;;2.03;;
7645;SDS011;3864;48.180;14.178;2024-03-23T16:14:00;3.05;;;1.98;;
7645;SDS011;3864;48.180;14.178;2024-03-23T16:16:27;3.20;;;1.83;;
7645;SDS011;3864;48.180;14.178;2024-03-23T16:18:54;3.63;;;1.60;;
7645;SDS011;3864;48.180;14.178;2024-03-23T16:21:23;3.88;;;2.22;;
7645;SDS011;3864;48.180;14.178;2024-03-23T16:23:49;4.53;;;2.00;;
7645;SDS011;3864;48.180;14.178;2024-03-23T16:26:16;2.60;;;1.75;;
7645;SDS011;3864;48.180;14.178;2024-03-23T16:28:42;2.33;;;1.67;;
7645;SDS011;3864;48.180;14.178;2024-03-23T16:31:10;3.83;;;1.80;;
7645;SDS011;3864;48.180;14.178;2024-03-23T16:33:37;3.58;;;1.48;;
7645;SDS011;3864;48.180;14.178;2024-03-23T16:36:05;4.25;;;2.20;;
7645;SDS011;3864;48.180;14.178;2024-03-23T16:38:33;4.53;;;2.45;;
7645;SDS011;3864;48.180;14.178;2024-03-23T16:41:01;3.22;;;2.10;;
7645;SDS011;3864;48.180;14.178;2024-03-23T16:43:29;3.00;;;2.00;;
7645;SDS011;3864;48.180;14.178;2024-03-23T16:45:58;4.35;;;2.03;;
7645;SDS011;3864;48.180;14.178;2024-03-23T16:48:26;8.70;;;2.47;;
7645;SDS011;3864;48.180;14.178;2024-03-23T16:50:56;4.38;;;2.88;;
7645;SDS011;3864;48.180;14.178;2024-03-23T16:53:23;5.68;;;3.40;;
7645;SDS011;3864;48.180;14.178;2024-03-23T16:55:56;5.07;;;3.28;;
7645;SDS011;3864;48.180;14.178;2024-03-23T16:58:23;6.05;;;3.13;;
7645;SDS011;3864;48.180;14.178;2024-03-23T17:00:50;4.55;;;2.90;;
7645;SDS011;3864;48.180;14.178;2024-03-23T17:03:18;4.85;;;2.25;;
7645;SDS011;3864;48.180;14.178;2024-03-23T17:05:46;4.00;;;2.85;;
7645;SDS011;3864;48.180;14.178;2024-03-23T17:08:12;3.47;;;2.25;;
7645;SDS011;3864;48.180;14.178;2024-03-23T17:10:39;5.07;;;2.78;;
7645;SDS011;3864;48.180;14.178;2024-03-23T17:13:07;4.65;;;3.10;;
7645;SDS011;3864;48.180;14.178;2024-03-23T17:15:41;5.35;;;2.95;;
7645;SDS011;3864;48.180;14.178;2024-03-23T17:18:08;5.93;;;3.25;;
7645;SDS011;3864;48.180;14.178;2024-03-23T17:20:35;5.18;;;3.00;;
7645;SDS011;3864;48.180;14.178;2024-03-23T17:23:01;4.60;;;2.83;;
7645;SDS011;3864;48.180;14.178;2024-03-23T17:25:28;4.30;;;2.85;;
7645;SDS011;3864;48.180;14.178;2024-03-23T17:27:54;4.25;;;2.60;;
7645;SDS011;3864;48.180;14.178;2024-03-23T17:30:23;4.80;;;2.50;;
7645;SDS011;3864;48.180;14.178;2024-03-23T17:32:51;4.50;;;2.72;;
7645;SDS011;3864;48.180;14.178;2024-03-23T17:35:18;4.63;;;2.30;;
7645;SDS011;3864;48.180;14.178;2024-03-23T17:37:44;4.15;;;2.40;;